createdAt,value
2022-09-26T00:02:04.754Z,12.70
2022-09-26T00:04:38.861Z,12.70
2022-09-26T00:07:12.412Z,12.60
2022-09-26T00:09:46.940Z,12.60
2022-09-26T00:12:20.782Z,12.50
2022-09-26T00:14:53.042Z,12.50
2022-09-26T00:17:25.015Z,12.40
2022-09-26T00:19:56.942Z,12.50
2022-09-26T00:22:31.524Z,12.30
2022-09-26T00:25:05.693Z,12.20
2022-09-26T00:27:38.370Z,12.20
2022-09-26T00:30:12.025Z,12.20
2022-09-26T00:32:44.051Z,12.20
2022-09-26T00:35:15.964Z,12.20
2022-09-26T00:37:51.268Z,12.20
2022-09-26T00:40:28.263Z,12.20
2022-09-26T00:42:59.837Z,12.10
2022-09-26T00:45:33.000Z,12.10
2022-09-26T00:48:05.493Z,12.10
2022-09-26T00:50:39.676Z,12.10
2022-09-26T00:53:14.123Z,12.00
2022-09-26T00:55:50.419Z,12.00
2022-09-26T00:58:24.467Z,12.00
2022-09-26T01:00:57.212Z,11.90
2022-09-26T01:03:29.559Z,12.00
2022-09-26T01:06:03.118Z,11.80
2022-09-26T01:08:38.116Z,11.80
2022-09-26T01:11:16.765Z,11.80
2022-09-26T01:13:48.902Z,11.70
2022-09-26T01:16:21.886Z,11.70
2022-09-26T01:18:52.816Z,11.60
2022-09-26T01:21:46.099Z,11.60
2022-09-26T01:24:55.326Z,11.50
2022-09-26T01:27:58.991Z,11.50
2022-09-26T01:30:35.087Z,11.40
2022-09-26T01:33:36.504Z,11.40
2022-09-26T01:36:14.855Z,11.40
2022-09-26T01:38:53.642Z,11.30
2022-09-26T01:41:33.305Z,11.20
2022-09-26T01:44:10.420Z,11.10
2022-09-26T01:46:47.952Z,11.30
2022-09-26T01:49:21.941Z,11.10
2022-09-26T01:51:56.953Z,11.20
2022-09-26T01:54:29.238Z,11.20
2022-09-26T01:57:02.150Z,11.20
2022-09-26T01:59:35.331Z,11.20
2022-09-26T02:02:16.132Z,11.10
2022-09-26T02:04:51.621Z,11.10
2022-09-26T02:07:27.771Z,11.10
2022-09-26T02:10:02.756Z,11.10
2022-09-26T02:12:36.876Z,11.00
2022-09-26T02:15:11.947Z,11.00
2022-09-26T02:17:50.071Z,11.00
2022-09-26T02:20:25.747Z,10.90
2022-09-26T02:22:57.226Z,10.90
2022-09-26T02:25:28.898Z,10.80
2022-09-26T02:28:01.051Z,10.90
2022-09-26T02:30:35.054Z,10.80
2022-09-26T02:33:10.875Z,10.80
2022-09-26T02:35:54.202Z,10.80
2022-09-26T02:38:27.932Z,10.80
2022-09-26T02:41:22.032Z,10.90
2022-09-26T02:44:00.772Z,10.80
2022-09-26T02:46:51.605Z,10.80
2022-09-26T02:49:57.100Z,10.70
2022-09-26T02:52:35.343Z,10.60
2022-09-26T02:55:13.593Z,10.60
2022-09-26T02:57:49.280Z,10.60
2022-09-26T03:00:22.524Z,10.60
2022-09-26T03:02:56.703Z,10.50
2022-09-26T03:05:27.758Z,10.50
2022-09-26T03:08:06.279Z,10.40
2022-09-26T03:10:38.711Z,10.40
2022-09-26T03:13:12.042Z,10.30
2022-09-26T03:15:46.965Z,10.30
2022-09-26T03:18:20.205Z,10.30
2022-09-26T03:20:54.551Z,10.20
2022-09-26T03:23:30.125Z,10.20
2022-09-26T03:26:11.442Z,10.20
2022-09-26T03:28:52.150Z,10.10
2022-09-26T03:31:25.743Z,10.10
2022-09-26T03:34:10.227Z,10.00
2022-09-26T03:36:42.942Z,10.00
2022-09-26T03:39:22.109Z,9.90
2022-09-26T03:42:02.879Z,10.00
2022-09-26T03:44:36.277Z,9.90
2022-09-26T03:47:18.302Z,9.90
2022-09-26T03:49:54.231Z,9.90
2022-09-26T03:52:28.021Z,9.80
2022-09-26T03:55:03.031Z,9.80
2022-09-26T03:57:37.121Z,9.80
2022-09-26T04:00:22.245Z,9.80
2022-09-26T04:02:53.740Z,9.70
2022-09-26T04:05:40.476Z,9.70
2022-09-26T04:08:15.007Z,9.60
2022-09-26T04:10:51.966Z,9.60
2022-09-26T04:13:49.610Z,9.50
2022-09-26T04:16:15.585Z,9.50
2022-09-26T04:18:54.388Z,9.50
2022-09-26T04:21:27.446Z,9.50
2022-09-26T04:23:59.296Z,9.50
2022-09-26T04:26:33.729Z,9.50
2022-09-26T04:29:07.748Z,9.40
2022-09-26T04:31:56.745Z,9.50
2022-09-26T04:34:38.255Z,9.40
2022-09-26T04:37:13.525Z,9.40
2022-09-26T04:39:45.852Z,9.30
2022-09-26T04:42:20.383Z,9.20
2022-09-26T04:44:53.268Z,9.30
2022-09-26T04:47:26.567Z,9.30
2022-09-26T04:50:29.127Z,9.30
2022-09-26T04:53:12.497Z,9.20
2022-09-26T04:55:54.606Z,9.10
2022-09-26T04:58:29.023Z,9.20
2022-09-26T05:01:05.511Z,9.20
2022-09-26T05:03:58.590Z,9.10
2022-09-26T05:06:34.138Z,9.20
2022-09-26T05:09:07.910Z,9.20
2022-09-26T05:11:55.329Z,9.30
2022-09-26T05:14:30.161Z,9.30
2022-09-26T05:17:04.794Z,9.30
2022-09-26T05:19:39.858Z,9.30
2022-09-26T05:22:27.152Z,9.50
2022-09-26T05:25:14.345Z,9.40
2022-09-26T05:27:47.421Z,9.50
2022-09-26T05:30:24.566Z,9.60
2022-09-26T05:32:56.245Z,9.50
2022-09-26T05:35:30.489Z,9.40
2022-09-26T05:38:03.272Z,9.60
2022-09-26T05:40:48.824Z,9.70
2022-09-26T05:43:23.160Z,9.70
2022-09-26T05:46:00.427Z,9.80
2022-09-26T05:48:38.547Z,9.80
2022-09-26T05:51:16.935Z,9.80
2022-09-26T05:53:49.679Z,9.90
2022-09-26T05:56:25.969Z,9.90
2022-09-26T05:59:19.387Z,10.10
2022-09-26T06:02:11.923Z,9.90
2022-09-26T06:05:02.371Z,10.00
2022-09-26T06:08:05.640Z,10.00
2022-09-26T06:10:42.353Z,10.00
2022-09-26T06:13:15.557Z,10.00
2022-09-26T06:15:57.660Z,10.00
2022-09-26T06:18:34.519Z,10.00
2022-09-26T06:21:09.651Z,10.00
2022-09-26T06:23:46.576Z,10.00
2022-09-26T06:26:22.042Z,10.10
2022-09-26T06:29:00.112Z,10.10
2022-09-26T06:31:34.361Z,10.10
2022-09-26T06:34:18.440Z,10.10
2022-09-26T06:36:56.751Z,10.20
2022-09-26T06:39:35.860Z,10.30
2022-09-26T06:42:12.731Z,10.20
2022-09-26T06:45:03.306Z,10.20
2022-09-26T06:47:57.403Z,10.20
2022-09-26T06:50:43.202Z,10.30
2022-09-26T06:53:19.375Z,10.30
2022-09-26T06:55:51.771Z,10.30
2022-09-26T06:58:26.654Z,10.40
2022-09-26T07:01:11.404Z,10.30
2022-09-26T07:03:46.329Z,10.40
2022-09-26T07:06:42.504Z,10.50
2022-09-26T07:09:15.651Z,10.60
2022-09-26T07:12:15.103Z,10.50
2022-09-26T07:14:51.439Z,10.50
2022-09-26T07:17:36.531Z,10.70
2022-09-26T07:20:24.849Z,10.60
2022-09-26T07:23:04.019Z,10.70
2022-09-26T07:25:39.016Z,10.70
2022-09-26T07:28:13.415Z,10.80
2022-09-26T07:30:52.384Z,10.80
2022-09-26T07:33:38.495Z,11.10
2022-09-26T07:36:12.804Z,11.00
2022-09-26T07:38:50.495Z,11.00
2022-09-26T07:41:31.824Z,11.00
2022-09-26T07:45:01.836Z,11.10
2022-09-26T07:47:08.648Z,11.10
2022-09-26T07:49:53.504Z,11.20
2022-09-26T07:52:50.667Z,11.30
2022-09-26T07:55:30.325Z,11.30
2022-09-26T07:58:26.275Z,11.30
2022-09-26T08:01:14.230Z,11.40
2022-09-26T08:03:57.717Z,11.40
2022-09-26T08:06:41.528Z,11.40
2022-09-26T08:09:15.459Z,11.50
2022-09-26T08:12:14.711Z,11.50
2022-09-26T08:15:07.325Z,11.70
2022-09-26T08:18:05.721Z,11.50
2022-09-26T08:20:38.620Z,11.60
2022-09-26T08:23:11.822Z,11.60
2022-09-26T08:25:49.508Z,11.70
2022-09-26T08:28:48.492Z,11.70
2022-09-26T08:31:21.626Z,11.80
2022-09-26T08:33:56.408Z,12.00
2022-09-26T08:36:30.534Z,11.90
2022-09-26T08:39:22.975Z,12.00
2022-09-26T08:42:05.905Z,12.10
2022-09-26T08:45:05.370Z,12.20
2022-09-26T08:47:51.295Z,12.30
2022-09-26T08:50:43.590Z,12.40
2022-09-26T08:53:20.451Z,12.50
2022-09-26T08:55:57.370Z,12.50
2022-09-26T08:58:42.726Z,12.70
2022-09-26T09:01:20.806Z,12.60
2022-09-26T09:04:14.259Z,12.70
2022-09-26T09:06:47.229Z,12.80
2022-09-26T09:09:21.218Z,12.80
2022-09-26T09:12:20.576Z,12.90
2022-09-26T09:15:25.841Z,12.90
2022-09-26T09:18:24.621Z,13.00
2022-09-26T09:21:30.494Z,13.00
2022-09-26T09:24:47.409Z,13.20
2022-09-26T09:30:24.520Z,13.30
2022-09-26T09:33:23.996Z,13.30
2022-09-26T09:36:16.940Z,13.40
2022-09-26T09:39:06.235Z,13.60
2022-09-26T09:41:53.620Z,13.60
2022-09-26T09:44:32.948Z,13.70
2022-09-26T09:47:05.357Z,13.80
2022-09-26T09:49:41.510Z,13.90
2022-09-26T09:52:16.321Z,14.00
2022-09-26T09:54:52.139Z,14.00
2022-09-26T09:57:56.990Z,14.10
2022-09-26T10:00:32.607Z,14.20
2022-09-26T10:03:19.375Z,14.20
2022-09-26T10:05:54.093Z,14.30
2022-09-26T10:08:41.581Z,14.20
2022-09-26T10:11:33.659Z,14.10
2022-09-26T10:14:31.312Z,14.10
2022-09-26T10:17:23.925Z,14.10
2022-09-26T10:20:35.816Z,14.00
2022-09-26T10:23:14.232Z,14.00
2022-09-26T10:25:53.738Z,14.00
2022-09-26T10:28:31.353Z,13.90
2022-09-26T10:31:12.766Z,13.80
2022-09-26T10:34:06.642Z,13.80
2022-09-26T10:36:40.437Z,13.70
2022-09-26T10:39:33.177Z,13.70
2022-09-26T10:42:09.783Z,13.60
2022-09-26T10:44:43.413Z,13.60
2022-09-26T10:47:27.135Z,13.60
2022-09-26T10:50:25.159Z,13.50
2022-09-26T10:53:15.979Z,13.50
2022-09-26T10:55:52.832Z,13.50
2022-09-26T10:58:30.130Z,13.50
2022-09-26T11:01:09.182Z,13.50
2022-09-26T11:03:46.705Z,13.50
2022-09-26T11:06:32.518Z,13.50
2022-09-26T11:09:14.393Z,13.40
2022-09-26T11:12:25.649Z,13.50
2022-09-26T11:15:02.569Z,13.40
2022-09-26T11:17:45.855Z,13.40
2022-09-26T11:20:23.340Z,13.30
2022-09-26T11:22:58.573Z,13.40
2022-09-26T11:25:38.364Z,13.50
2022-09-26T11:28:12.847Z,13.40
2022-09-26T11:31:10.255Z,13.40
2022-09-26T11:33:48.227Z,13.30
2022-09-26T11:36:47.263Z,13.40
2022-09-26T11:39:31.371Z,13.30
2022-09-26T11:42:09.148Z,13.50
2022-09-26T11:44:42.568Z,13.30
2022-09-26T11:48:02.317Z,13.30
2022-09-26T11:50:55.101Z,13.30
2022-09-26T11:53:58.370Z,13.30
2022-09-26T11:56:44.268Z,13.40
2022-09-26T11:59:40.615Z,13.40
2022-09-26T12:02:56.327Z,13.40
2022-09-26T12:05:32.527Z,13.50
2022-09-26T12:08:08.548Z,13.60
2022-09-26T12:10:44.718Z,13.70
2022-09-26T12:13:35.259Z,13.60
2022-09-26T12:16:14.660Z,13.60
2022-09-26T12:18:53.701Z,13.70
2022-09-26T12:21:33.384Z,13.70
2022-09-26T12:24:11.140Z,13.80
2022-09-26T12:26:50.096Z,13.80
2022-09-26T12:29:37.450Z,13.80
2022-09-26T12:32:17.146Z,13.90
2022-09-26T12:35:07.338Z,13.90
2022-09-26T12:38:08.951Z,13.90
2022-09-26T12:40:49.012Z,14.10
2022-09-26T12:43:42.329Z,14.30
2022-09-26T12:46:31.298Z,14.40
2022-09-26T12:49:28.442Z,14.60
2022-09-26T12:52:02.412Z,14.60
2022-09-26T12:54:48.861Z,14.60
2022-09-26T12:57:29.152Z,14.60
2022-09-26T13:00:14.237Z,14.50
2022-09-26T13:03:33.002Z,14.50
2022-09-26T13:07:02.170Z,14.50
2022-09-26T13:10:04.938Z,14.60
2022-09-26T13:12:50.308Z,14.60
2022-09-26T13:15:29.249Z,14.60
2022-09-26T13:18:04.448Z,14.80
2022-09-26T13:20:43.495Z,14.70
2022-09-26T13:23:17.912Z,14.80
2022-09-26T13:25:51.814Z,14.80
2022-09-26T13:28:29.349Z,14.80
2022-09-26T13:31:03.971Z,14.80
2022-09-26T13:33:39.733Z,14.90
2022-09-26T13:36:12.092Z,14.80
2022-09-26T13:38:49.084Z,14.90
2022-09-26T13:41:29.418Z,14.90
2022-09-26T13:44:19.012Z,14.90
2022-09-26T13:47:02.119Z,14.90
2022-09-26T13:49:45.487Z,15.00
2022-09-26T13:52:34.758Z,15.00
2022-09-26T13:55:08.511Z,15.00
2022-09-26T13:57:42.180Z,15.10
2022-09-26T14:00:53.600Z,15.10
2022-09-26T14:03:21.578Z,15.10
2022-09-26T14:05:56.835Z,15.20
2022-09-26T14:08:46.229Z,15.20
2022-09-26T14:11:27.943Z,15.20
2022-09-26T14:14:24.520Z,15.30
2022-09-26T14:16:59.465Z,15.40
2022-09-26T14:19:36.488Z,15.40
2022-09-26T14:22:29.761Z,15.40
2022-09-26T14:25:15.197Z,15.50
2022-09-26T14:27:47.482Z,15.50
2022-09-26T14:30:29.513Z,15.50
2022-09-26T14:33:06.424Z,15.50
2022-09-26T14:35:39.294Z,15.40
2022-09-26T14:38:13.136Z,15.50
2022-09-26T14:40:54.489Z,15.40
2022-09-26T14:43:27.473Z,15.40
2022-09-26T14:46:05.506Z,15.40
2022-09-26T14:48:41.563Z,15.40
2022-09-26T14:51:27.520Z,15.30
2022-09-26T14:54:01.929Z,15.30
2022-09-26T14:56:45.565Z,15.30
2022-09-26T14:59:43.593Z,15.30
2022-09-26T15:02:38.741Z,15.20
2022-09-26T15:05:18.141Z,15.30
2022-09-26T15:07:51.461Z,15.20
2022-09-26T15:10:45.552Z,15.20
2022-09-26T15:13:34.398Z,15.20
2022-09-26T15:16:17.476Z,15.10
2022-09-26T15:18:50.379Z,15.00
2022-09-26T15:21:33.190Z,15.00
2022-09-26T15:24:08.634Z,15.00
2022-09-26T15:26:41.493Z,14.90
2022-09-26T15:29:15.412Z,14.90
2022-09-26T15:31:47.859Z,14.80
2022-09-26T15:34:24.703Z,14.80
2022-09-26T15:37:00.332Z,14.80
2022-09-26T15:39:42.461Z,14.70
2022-09-26T15:42:38.663Z,14.70
2022-09-26T15:45:22.777Z,14.60
2022-09-26T15:47:58.370Z,14.60
2022-09-26T15:50:33.463Z,14.60
2022-09-26T15:53:11.892Z,14.50
2022-09-26T15:55:49.767Z,14.50
2022-09-26T15:58:25.629Z,14.40
2022-09-26T16:00:58.236Z,14.40
2022-09-26T16:03:49.757Z,14.40
2022-09-26T16:06:31.051Z,14.40
2022-09-26T16:09:19.438Z,14.30
2022-09-26T16:11:53.554Z,14.30
2022-09-26T16:14:32.251Z,14.30
2022-09-26T16:17:14.687Z,14.20
2022-09-26T16:19:49.100Z,14.20
2022-09-26T16:22:37.106Z,14.20
2022-09-26T16:25:29.772Z,14.20
2022-09-26T16:28:22.470Z,14.10
2022-09-26T16:31:18.200Z,14.10
2022-09-26T16:33:53.582Z,14.00
2022-09-26T16:36:29.450Z,13.90
2022-09-26T16:39:02.322Z,13.80
2022-09-26T16:42:00.684Z,13.80
2022-09-26T16:44:36.189Z,13.70
2022-09-26T16:47:09.980Z,13.60
2022-09-26T16:49:46.464Z,13.60
2022-09-26T16:52:42.402Z,13.50
2022-09-26T16:55:14.729Z,13.40
2022-09-26T16:57:54.478Z,13.30
2022-09-26T17:00:40.040Z,13.20
2022-09-26T17:03:23.162Z,13.10
2022-09-26T17:05:56.790Z,13.10
2022-09-26T17:08:29.914Z,13.00
2022-09-26T17:11:03.295Z,12.90
2022-09-26T17:13:41.513Z,12.90
2022-09-26T17:16:15.509Z,12.80
2022-09-26T17:18:48.477Z,12.70
2022-09-26T17:21:20.824Z,12.70
2022-09-26T17:23:54.643Z,12.60
2022-09-26T17:26:27.226Z,12.60
2022-09-26T17:29:07.155Z,12.60
2022-09-26T17:31:39.517Z,12.50
2022-09-26T17:34:14.647Z,12.50
2022-09-26T17:36:49.038Z,12.40
2022-09-26T17:39:26.080Z,12.40
2022-09-26T17:41:58.598Z,12.30
2022-09-26T17:44:37.320Z,12.20
2022-09-26T17:47:10.381Z,12.20
2022-09-26T17:49:43.787Z,12.10
2022-09-26T17:52:25.086Z,12.10
2022-09-26T17:54:57.884Z,12.10
2022-09-26T17:57:30.975Z,12.00
2022-09-26T18:00:13.454Z,12.00
2022-09-26T18:02:48.123Z,12.00
2022-09-26T18:05:23.295Z,12.00
2022-09-26T18:08:04.848Z,12.00
2022-09-26T18:10:39.976Z,12.00
2022-09-26T18:13:16.636Z,12.00
2022-09-26T18:15:58.300Z,11.90
2022-09-26T18:18:33.390Z,11.80
2022-09-26T18:21:13.335Z,11.70
2022-09-26T18:23:50.008Z,11.70
2022-09-26T18:26:31.430Z,11.70
2022-09-26T18:29:08.773Z,11.70
2022-09-26T18:31:45.130Z,11.60
2022-09-26T18:34:21.772Z,11.50
2022-09-26T18:37:00.493Z,11.50
2022-09-26T18:39:34.090Z,11.50
2022-09-26T18:42:13.162Z,11.40
2022-09-26T18:44:47.747Z,11.30
2022-09-26T18:47:23.834Z,11.30
2022-09-26T18:49:58.972Z,11.20
2022-09-26T18:52:36.947Z,11.10
2022-09-26T18:55:31.301Z,11.10
2022-09-26T18:58:00.873Z,11.00
2022-09-26T19:00:35.913Z,11.00
2022-09-26T19:03:11.455Z,10.90
2022-09-26T19:05:47.952Z,10.90
2022-09-26T19:08:34.015Z,10.90
2022-09-26T19:11:13.397Z,10.80
2022-09-26T19:13:50.871Z,10.80
2022-09-26T19:16:30.366Z,10.80
2022-09-26T19:19:05.817Z,10.80
2022-09-26T19:21:40.417Z,10.70
2022-09-26T19:26:58.487Z,10.60
2022-09-26T19:29:37.726Z,10.60
2022-09-26T19:32:19.780Z,10.60
2022-09-26T19:34:56.519Z,10.50
2022-09-26T19:37:32.922Z,10.60
2022-09-26T19:40:14.411Z,10.50
2022-09-26T19:42:53.155Z,10.40
2022-09-26T19:45:32.694Z,10.40
2022-09-26T19:48:09.770Z,10.40
2022-09-26T19:50:45.224Z,10.40
2022-09-26T19:53:22.160Z,10.40
2022-09-26T19:55:59.786Z,10.40
2022-09-26T19:58:37.836Z,10.40
2022-09-26T20:01:19.607Z,10.30
2022-09-26T20:03:58.047Z,10.30
2022-09-26T20:06:33.263Z,10.30
2022-09-26T20:09:11.571Z,10.30
2022-09-26T20:11:50.098Z,10.30
2022-09-26T20:14:32.873Z,10.30
2022-09-26T20:17:18.244Z,10.20
2022-09-26T20:19:59.268Z,10.20
2022-09-26T20:22:35.175Z,10.20
2022-09-26T20:25:11.021Z,10.10
2022-09-26T20:27:49.652Z,10.10
2022-09-26T20:30:35.730Z,10.10
2022-09-26T20:33:13.736Z,10.10
2022-09-26T20:35:51.231Z,10.20
2022-09-26T20:38:31.190Z,9.90
2022-09-26T20:41:20.021Z,10.10
2022-09-26T20:44:11.289Z,9.90
2022-09-26T20:46:51.093Z,9.90
2022-09-26T20:49:31.459Z,9.80
2022-09-26T20:52:09.365Z,9.80
2022-09-26T20:54:47.547Z,9.80
2022-09-26T20:57:22.546Z,9.80
2022-09-26T20:59:57.610Z,9.80
2022-09-26T21:02:33.537Z,9.80
2022-09-26T21:05:13.653Z,9.70
2022-09-26T21:07:53.503Z,9.70
2022-09-26T21:10:29.310Z,9.80
2022-09-26T21:13:04.349Z,9.70
2022-09-26T21:15:41.963Z,9.60
2022-09-26T21:18:24.434Z,9.60
2022-09-26T21:21:05.574Z,9.60
2022-09-26T21:23:55.940Z,9.60
2022-09-26T21:26:33.920Z,9.50
2022-09-26T21:29:14.079Z,9.50
2022-09-26T21:31:51.076Z,9.50
2022-09-26T21:34:27.085Z,9.50
2022-09-26T21:37:04.740Z,9.50
2022-09-26T21:39:40.518Z,9.50
2022-09-26T21:42:16.334Z,9.50
2022-09-26T21:44:52.923Z,9.50
2022-09-26T21:47:28.705Z,9.40
2022-09-26T21:50:04.658Z,9.40
2022-09-26T21:52:43.822Z,9.50
2022-09-26T21:55:21.107Z,9.40
2022-09-26T21:57:56.384Z,9.40
2022-09-26T22:00:31.704Z,9.50
2022-09-26T22:03:06.909Z,9.50
2022-09-26T22:05:41.769Z,9.30
2022-09-26T22:08:19.252Z,9.50
2022-09-26T22:10:55.705Z,9.50
2022-09-26T22:13:30.762Z,9.50
2022-09-26T22:16:09.142Z,9.50
2022-09-26T22:18:43.496Z,9.50
2022-09-26T22:21:19.912Z,9.50
2022-09-26T22:23:57.183Z,9.50
2022-09-26T22:26:31.589Z,9.50
2022-09-26T22:29:07.453Z,9.50
2022-09-26T22:31:44.249Z,9.60
2022-09-26T22:34:18.938Z,9.60
2022-09-26T22:36:51.287Z,9.60
2022-09-26T22:39:29.044Z,9.60
2022-09-26T22:42:03.329Z,9.60
2022-09-26T22:44:38.197Z,9.70
2022-09-26T22:47:13.225Z,9.60
2022-09-26T22:49:49.492Z,9.60
2022-09-26T22:52:25.234Z,9.70
2022-09-26T22:55:08.118Z,9.70
2022-09-26T22:57:42.382Z,9.70
2022-09-26T23:00:19.278Z,9.60
2022-09-26T23:02:54.272Z,9.70
2022-09-26T23:05:29.467Z,9.60
2022-09-26T23:08:05.691Z,9.60
2022-09-26T23:10:43.882Z,9.60
2022-09-26T23:13:24.896Z,9.80
2022-09-26T23:16:06.577Z,9.80
2022-09-26T23:18:41.879Z,9.60
2022-09-26T23:21:16.769Z,9.70
2022-09-26T23:23:52.392Z,9.60
2022-09-26T23:26:32.118Z,9.60
2022-09-26T23:29:07.028Z,9.60
2022-09-26T23:31:41.531Z,9.70
2022-09-26T23:34:15.946Z,9.60
2022-09-26T23:36:49.953Z,9.60
2022-09-26T23:39:24.084Z,9.60
2022-09-26T23:42:03.379Z,9.60
2022-09-26T23:44:41.332Z,9.80
2022-09-26T23:47:16.127Z,9.70
2022-09-26T23:49:52.926Z,9.70
2022-09-26T23:52:25.507Z,9.70
2022-09-26T23:55:00.173Z,9.70
2022-09-26T23:57:37.217Z,9.70
